createdAt,value
2023-09-19T00:11:18.984Z,15.48
2023-09-19T00:31:20.850Z,15.26
2023-09-19T00:51:20.631Z,15.23
2023-09-19T01:11:19.208Z,15.09
2023-09-19T01:31:19.224Z,14.9
2023-09-19T01:51:19.738Z,14.72
2023-09-19T02:11:19.401Z,14.85
2023-09-19T02:31:19.162Z,14.9
2023-09-19T02:51:19.312Z,14.79
2023-09-19T03:11:20.097Z,15.1
2023-09-19T03:31:19.347Z,15.38
2023-09-19T03:51:19.280Z,15.61
2023-09-19T04:11:19.307Z,15.6
2023-09-19T04:31:19.407Z,15.79
2023-09-19T04:51:19.380Z,15.95
2023-09-19T05:31:19.756Z,15.32
2023-09-19T05:51:19.745Z,15.26
2023-09-19T06:11:19.443Z,15.67
2023-09-19T06:31:19.488Z,16.58
2023-09-19T06:51:19.618Z,17.09
2023-09-19T07:11:19.539Z,17.26
2023-09-19T07:31:19.814Z,17.53
2023-09-19T07:51:19.600Z,17.69
2023-09-19T08:11:19.758Z,17.83
2023-09-19T08:31:19.874Z,17.84
2023-09-19T08:51:19.736Z,18.26
2023-09-19T09:11:19.692Z,19.28
2023-09-19T09:31:19.838Z,19.13
2023-09-19T09:51:19.907Z,19.69
2023-09-19T10:11:20.031Z,19.6
2023-09-19T10:31:20.214Z,20.49
2023-09-19T10:51:19.981Z,20.67
2023-09-19T11:11:19.905Z,22.27
2023-09-19T11:31:19.958Z,21.3
2023-09-19T11:51:20.139Z,22.82
2023-09-19T12:11:20.087Z,22.47
2023-09-19T12:31:20.096Z,23.04
2023-09-19T12:51:20.019Z,24.34
2023-09-19T13:11:20.058Z,24.51
2023-09-19T13:31:20.258Z,23.78
2023-09-19T13:51:20.047Z,23.63
2023-09-19T14:11:20.144Z,23.17
2023-09-19T14:31:20.284Z,22.03
2023-09-19T14:51:20.308Z,21.69
2023-09-19T15:11:20.920Z,20.99
2023-09-19T15:51:20.272Z,20.27
2023-09-19T16:11:20.417Z,20.2
2023-09-19T16:31:20.380Z,19.77
2023-09-19T16:51:20.465Z,19.27
2023-09-19T17:11:20.769Z,18.81
2023-09-19T17:31:20.582Z,18.34
2023-09-19T17:51:20.427Z,17.88
2023-09-19T18:11:20.713Z,17.44
2023-09-19T18:31:20.616Z,17.01
2023-09-19T18:51:20.552Z,16.13
2023-09-19T19:11:20.790Z,15.36
2023-09-19T19:31:20.706Z,14.85
2023-09-19T19:51:20.728Z,14.42
2023-09-19T20:11:20.932Z,14.24
2023-09-19T20:31:20.831Z,13.9
2023-09-19T20:51:20.799Z,13.63
2023-09-19T21:11:20.696Z,13.54
2023-09-19T21:31:20.838Z,13.38
2023-09-19T21:51:20.817Z,13.03
2023-09-19T22:11:21.518Z,12.72
2023-09-19T22:31:20.998Z,12.6
2023-09-19T22:51:20.966Z,12.64
2023-09-19T23:11:21.376Z,12.69
2023-09-19T23:31:20.976Z,12.52
2023-09-19T23:51:21.093Z,12.76
